Main page
METAR-TAF:

METAR-TAF

Airports :

Oil platform

Ekofisk, Norway

latitude: 56-33N, longitude: 003-15E, elevation: 3 m

Current weather observation

The report was made 37 minutes ago, at 20:20 UTC
Wind 48 kt from the North
Temperature 4°C
Humidity 56%
Pressure 1034 hPa
Visibility 10 km or more
Few clouds at a height of 4000 ft, Cumulonimbus.
showers in vicinity

METAR: ENLE 282020Z 35048KT 9999 VCSH FEW040CB 04/M04 Q1034 W07/S6

Time: 21:57 (20:57 UTC)

Forecast

The report was made 57 minutes ago, at 20:00 UTC
Forecast valid from 28 at 21 UTC to 29 at 06 UTC
Wind 45 kt from the North
Visibility 10 km or more
Few clouds at a height of 2000 ft, Towering cumulus.
Scattered clouds at a height of 3000 ft
Probability 40% :
Temporary
from 28 at 21 UTC to 29 at 06 UTC
Wind 45 kt from the North with gusts up to 55 kt
Scattered clouds at a height of 1500 ft, Cumulonimbus.
rain showers, small hail or snow pellets

TAF: ENLE 282000Z 2821/2906 01045KT 9999 FEW020TCU SCT030 PROB40 TEMPO 2821/2906 01045G55KT SHRAGS SCT015CB

Weather observations and forecasts of more than 4000 airports (METAR and TAF reports).

The available stations are represented by yellow and red dots on the map.

Hover mouse over dot to see the name of the station.

Then click to see weather observations and forecasts.

To change the map : click on the green buttons with a black cross to zoom in, on the green button with a dash to zoom out, or on the green arrows for adjacent maps.


METAR-TAF: